Time;durP1;ratioP1;P1;durP2;ratioP2;P2;SDS_P1;SDS_P2;PMS_P1;PMS_P2;Temp;Humidity;BMP_temperature;BMP_pressure;BME280_temperature;BME280_humidity;BME280_pressure;Samples;Min_cycle;Max_cycle;Signal;HPM_P1;HPM_P2
2022/07/13 00:01:49;;;;;;;10.70;7.00;;;;;;;23.91;52.03;102047.16;5092454;28;20387;-73
2022/07/13 00:04:14;;;;;;;9.73;6.78;;;;;;;23.91;52.06;102033.00;5094604;28;20122;-73
2022/07/13 00:06:40;;;;;;;8.35;6.68;;;;;;;23.94;51.63;102045.72;5096711;28;20390;-73
2022/07/13 00:09:05;;;;;;;8.07;7.00;;;;;;;23.93;51.84;102039.19;5094658;28;20079;-73
2022/07/13 00:11:30;;;;;;;10.00;6.65;;;;;;;23.95;52.41;102033.19;5110555;28;20054;-73
2022/07/13 00:13:55;;;;;;;8.45;6.47;;;;;;;23.91;52.52;102007.47;5099637;28;20074;-73
2022/07/13 00:16:21;;;;;;;8.07;6.53;;;;;;;23.94;52.28;101998.34;5092966;28;20043;-73
2022/07/13 00:18:47;;;;;;;8.65;5.93;;;;;;;23.92;52.27;102006.31;5090336;28;20081;-73
2022/07/13 00:21:12;;;;;;;8.70;7.00;;;;;;;23.89;51.93;102009.75;5105486;28;20034;-73
2022/07/13 00:23:37;;;;;;;11.43;6.25;;;;;;;23.89;51.90;102003.25;5093033;28;20036;-73
2022/07/13 00:26:03;;;;;;;10.23;6.05;;;;;;;23.87;52.34;102000.75;5092611;28;20063;-73
2022/07/13 00:28:28;;;;;;;6.88;6.07;;;;;;;23.89;51.81;101994.75;5089205;28;20032;-73
2022/07/13 00:30:53;;;;;;;9.32;5.82;;;;;;;23.89;51.28;101995.59;5110020;28;20067;-73
2022/07/13 00:33:18;;;;;;;6.40;5.53;;;;;;;23.86;51.10;101995.41;5090443;28;20046;-73
2022/07/13 00:35:44;;;;;;;7.60;5.70;;;;;;;23.88;50.58;101995.91;5089572;28;20046;-73
2022/07/13 00:38:09;;;;;;;7.25;6.03;;;;;;;23.84;50.41;101989.19;5084072;28;20024;-73
2022/07/13 00:40:34;;;;;;;7.72;5.40;;;;;;;23.85;50.05;101985.19;5091023;28;20066;-73
2022/07/13 00:43:00;;;;;;;9.68;5.35;;;;;;;23.83;50.16;101962.84;5091457;28;20032;-73
2022/07/13 00:45:25;;;;;;;9.75;6.13;;;;;;;23.80;49.58;101976.81;5090132;28;20032;-73
2022/07/13 00:47:50;;;;;;;6.90;5.47;;;;;;;23.80;51.34;101957.78;5088921;28;20444;-73
2022/07/13 00:50:16;;;;;;;6.35;5.13;;;;;;;23.82;49.92;101951.81;5087637;28;20024;-73
2022/07/13 00:52:41;;;;;;;10.00;5.45;;;;;;;23.82;49.88;101958.34;5086143;28;20554;-73
2022/07/13 00:55:08;;;;;;;6.07;5.47;;;;;;;23.79;49.68;101961.78;5086882;28;20034;-73
2022/07/13 00:57:35;;;;;;;7.82;5.20;;;;;;;23.78;49.39;101962.97;5083777;28;20471;-73
2022/07/13 01:00:06;;;;;;;6.95;5.30;;;;;;;23.77;49.54;101961.25;5098375;28;20081;-73
2022/07/13 01:02:31;;;;;;;7.85;5.40;;;;;;;23.78;48.96;101948.78;5091008;28;20063;-73
2022/07/13 01:04:57;;;;;;;7.22;4.70;;;;;;;23.80;49.11;101948.44;5093804;28;20068;-73
2022/07/13 01:07:22;;;;;;;7.88;5.70;;;;;;;23.72;48.69;101958.53;5091198;28;20070;-73
2022/07/13 01:09:47;;;;;;;7.65;5.20;;;;;;;23.77;48.87;101947.91;5082604;28;20071;-73
2022/07/13 01:12:13;;;;;;;7.45;5.28;;;;;;;23.77;48.94;101947.91;5095899;28;20093;-73
2022/07/13 01:14:39;;;;;;;6.43;5.43;;;;;;;23.76;48.92;101954.75;5083939;28;20046;-73
2022/07/13 01:17:05;;;;;;;5.78;5.28;;;;;;;23.75;48.57;101952.25;5090906;28;20043;-73
2022/07/13 01:19:33;;;;;;;7.72;5.15;;;;;;;23.76;48.96;101942.56;5097934;28;20426;-73
2022/07/13 01:22:01;;;;;;;8.93;5.25;;;;;;;23.76;48.72;101946.25;5085706;28;20024;-73
2022/07/13 01:24:30;;;;;;;7.57;4.95;;;;;;;23.75;48.42;101941.75;5085164;28;20100;-73
2022/07/13 01:26:56;;;;;;;7.72;4.85;;;;;;;23.74;48.36;101945.75;5090582;28;20036;-73
2022/07/13 01:29:22;;;;;;;5.28;4.75;;;;;;;23.74;49.02;101940.06;5099312;28;20024;-73
2022/07/13 01:31:47;;;;;;;5.78;4.03;;;;;;;23.73;49.02;101938.38;5089271;28;20846;-73
2022/07/13 01:34:12;;;;;;;5.05;4.55;;;;;;;23.74;48.75;101934.41;5088205;28;20028;-73
2022/07/13 01:36:40;;;;;;;6.75;4.45;;;;;;;23.72;48.52;101948.03;5093066;28;20032;-73
2022/07/13 01:39:06;;;;;;;4.72;4.10;;;;;;;23.73;48.48;101944.03;5099094;28;20035;-73
2022/07/13 01:41:31;;;;;;;7.28;4.07;;;;;;;23.71;48.54;101937.84;5092078;28;20546;-73
2022/07/13 01:43:58;;;;;;;5.50;4.10;;;;;;;23.71;48.98;101939.84;5092888;28;20032;-73
2022/07/13 01:46:24;;;;;;;5.35;3.72;;;;;;;23.73;49.24;101938.38;5089586;28;20040;-73
2022/07/13 01:48:50;;;;;;;5.07;3.70;;;;;;;23.67;49.84;101936.81;5092882;28;20035;-73
2022/07/13 01:51:16;;;;;;;8.95;3.83;;;;;;;23.68;49.75;101937.66;5089411;28;20033;-73
2022/07/13 01:53:41;;;;;;;6.78;3.67;;;;;;;23.69;48.45;101942.16;5090780;28;20024;-73
2022/07/13 01:56:06;;;;;;;5.45;3.75;;;;;;;23.67;48.10;101936.81;5092427;28;20154;-73
2022/07/13 01:58:32;;;;;;;4.72;3.72;;;;;;;23.63;47.44;101932.91;5097772;28;20479;-73
2022/07/13 02:00:58;;;;;;;4.32;3.60;;;;;;;23.66;47.61;101929.47;5087650;28;20024;-73
2022/07/13 02:03:24;;;;;;;5.10;3.90;;;;;;;23.65;47.90;101926.91;5093814;28;20490;-73
2022/07/13 02:05:49;;;;;;;8.73;3.80;;;;;;;23.63;47.35;101932.06;5091211;28;20110;-73
2022/07/13 02:08:14;;;;;;;5.03;3.50;;;;;;;23.61;47.20;101923.84;5097776;28;20042;-73
2022/07/13 02:10:39;;;;;;;6.85;4.13;;;;;;;23.61;47.09;101918.19;5090057;28;20085;-73
2022/07/13 02:13:07;;;;;;;4.28;3.47;;;;;;;23.62;47.29;101914.22;5087811;28;20516;-72
2022/07/13 02:15:34;;;;;;;4.22;3.83;;;;;;;23.60;47.40;101910.84;5081694;28;20024;-73
2022/07/13 02:17:59;;;;;;;4.55;3.63;;;;;;;23.61;47.39;101909.69;5089704;28;20605;-73
2022/07/13 02:20:24;;;;;;;4.80;3.67;;;;;;;23.60;47.72;101904.34;5082850;28;20036;-72
2022/07/13 02:22:49;;;;;;;7.07;3.95;;;;;;;23.58;47.53;101899.00;5086793;28;20107;-73
2022/07/13 02:25:15;;;;;;;4.60;3.83;;;;;;;23.56;47.30;101901.31;5090486;28;20032;-73
2022/07/13 02:27:42;;;;;;;5.10;3.85;;;;;;;23.59;47.23;101908.34;5084552;28;20499;-72
2022/07/13 02:30:08;;;;;;;5.53;3.63;;;;;;;23.56;47.55;101903.31;5082752;28;20081;-73
2022/07/13 02:32:34;;;;;;;5.97;4.00;;;;;;;23.57;47.38;101902.13;5087478;28;20031;-73
2022/07/13 02:34:59;;;;;;;4.85;3.92;;;;;;;23.57;47.00;101899.31;5093079;28;20032;-73
2022/07/13 02:37:24;;;;;;;6.45;3.92;;;;;;;23.54;47.26;101889.47;5089382;28;20494;-73
2022/07/13 02:39:51;;;;;;;5.70;4.07;;;;;;;23.55;47.70;101891.13;5084992;28;20032;-73
2022/07/13 02:42:17;;;;;;;6.30;3.83;;;;;;;23.54;47.71;101892.28;5077284;28;20388;-73
2022/07/13 02:44:42;;;;;;;5.28;3.28;;;;;;;23.55;47.75;101896.78;5092820;28;20034;-73
2022/07/13 02:47:07;;;;;;;3.97;3.58;;;;;;;23.52;47.67;101888.91;5096148;28;20032;-73
2022/07/13 02:49:32;;;;;;;5.57;3.70;;;;;;;23.51;47.75;101873.09;5091882;28;20027;-73
2022/07/13 02:51:58;;;;;;;5.35;3.67;;;;;;;23.50;47.61;101860.03;5074937;28;20025;-73
2022/07/13 02:54:23;;;;;;;4.38;3.90;;;;;;;23.46;48.13;101873.16;5084012;28;20108;-72
2022/07/13 02:56:48;;;;;;;4.63;3.50;;;;;;;23.43;47.68;101883.16;5089927;28;20383;-72
2022/07/13 02:59:14;;;;;;;6.50;3.63;;;;;;;23.46;47.92;101887.34;5093143;28;20387;-73
2022/07/13 03:01:39;;;;;;;6.05;3.70;;;;;;;23.47;47.92;101878.53;5078145;28;20037;-73
2022/07/13 03:04:04;;;;;;;3.85;3.40;;;;;;;23.49;47.93;101879.03;5088267;28;20540;-73
2022/07/13 03:06:30;;;;;;;4.28;3.80;;;;;;;23.44;48.19;101879.16;5089075;28;20028;-73
2022/07/13 03:08:55;;;;;;;5.85;3.80;;;;;;;23.43;48.08;101886.00;5081000;28;20036;-73
2022/07/13 03:11:20;;;;;;;6.43;3.63;;;;;;;23.44;47.95;101884.84;5091287;28;20049;-73
2022/07/13 03:13:46;;;;;;;6.78;3.67;;;;;;;23.42;47.90;101890.00;5083195;28;20036;-73
2022/07/13 03:16:11;;;;;;;6.05;3.63;;;;;;;23.45;48.08;101885.66;5094019;28;20020;-73
2022/07/13 03:18:36;;;;;;;4.32;3.60;;;;;;;23.45;48.43;101891.34;5091466;28;20103;-73
2022/07/13 03:21:02;;;;;;;5.30;3.88;;;;;;;23.40;48.24;101878.13;5088954;28;20024;-72
2022/07/13 03:23:27;;;;;;;4.63;3.70;;;;;;;23.42;48.26;101881.50;5090165;28;20024;-72
2022/07/13 03:25:53;;;;;;;5.60;3.80;;;;;;;23.44;48.69;101872.66;5087708;28;20031;-73
2022/07/13 03:28:18;;;;;;;5.60;3.83;;;;;;;23.40;48.16;101875.28;5086459;28;20068;-73
2022/07/13 03:30:43;;;;;;;3.85;3.33;;;;;;;23.44;48.39;101872.66;5088985;28;20032;-73
2022/07/13 03:33:08;;;;;;;6.45;3.65;;;;;;;23.42;48.31;101870.16;5085333;28;20050;-73
2022/07/13 03:35:34;;;;;;;7.35;3.70;;;;;;;23.39;48.35;101870.78;5080910;28;20090;-73
2022/07/13 03:37:59;;;;;;;6.53;4.10;;;;;;;23.43;48.41;101869.00;5080114;28;20115;-73
2022/07/13 03:40:25;;;;;;;8.05;4.05;;;;;;;23.39;48.31;101867.13;5081155;28;20077;-73
2022/07/13 03:42:50;;;;;;;5.35;3.35;;;;;;;23.40;48.11;101872.44;5085890;28;20078;-72
2022/07/13 03:45:15;;;;;;;7.18;3.75;;;;;;;23.36;48.13;101870.56;5079700;28;20033;-73
2022/07/13 03:47:41;;;;;;;6.78;3.63;;;;;;;23.36;48.22;101859.25;5083614;28;20028;-73
2022/07/13 03:50:06;;;;;;;6.60;3.65;;;;;;;23.36;48.75;101862.91;5080117;28;20082;-73
2022/07/13 03:52:31;;;;;;;4.90;3.80;;;;;;;23.40;48.51;101868.78;5082442;28;20032;-73
2022/07/13 03:54:57;;;;;;;5.60;3.63;;;;;;;23.37;48.15;101867.41;5079084;28;20056;-73
2022/07/13 03:57:22;;;;;;;5.13;3.70;;;;;;;23.40;48.13;101863.13;5088099;28;20036;-73
2022/07/13 03:59:47;;;;;;;5.82;3.85;;;;;;;23.39;48.16;101859.44;5082517;28;20038;-73
2022/07/13 04:02:12;;;;;;;4.60;3.50;;;;;;;23.39;48.29;101869.94;5083795;28;20027;-73
2022/07/13 04:04:38;;;;;;;5.85;3.72;;;;;;;23.37;48.24;101861.75;5071550;28;20067;-73
2022/07/13 04:07:03;;;;;;;16.45;7.05;;;;;;;23.37;47.94;101866.56;5082245;28;20526;-73
2022/07/13 04:09:29;;;;;;;5.80;4.00;;;;;;;23.35;48.27;101868.91;5079479;28;20032;-72
2022/07/13 04:11:54;;;;;;;7.18;4.10;;;;;;;23.34;48.45;101870.88;5077752;28;20036;-73
2022/07/13 04:14:20;;;;;;;6.78;3.85;;;;;;;23.32;48.29;101869.53;5089788;28;20416;-73
2022/07/13 04:16:45;;;;;;;5.63;4.00;;;;;;;23.33;48.47;101869.19;5083408;28;20058;-73
2022/07/13 04:19:10;;;;;;;5.30;3.72;;;;;;;23.36;48.66;101862.06;5080880;28;20069;-72
2022/07/13 04:21:35;;;;;;;8.18;3.65;;;;;;;23.35;48.26;101860.41;5073169;28;20384;-72
2022/07/13 04:24:01;;;;;;;4.90;4.00;;;;;;;23.33;48.46;101852.19;5079859;28;20092;-72
2022/07/13 04:26:26;;;;;;;4.45;3.42;;;;;;;23.32;48.44;101849.69;5086350;28;20501;-73
2022/07/13 04:28:51;;;;;;;6.93;4.13;;;;;;;23.32;48.47;101850.53;5072975;28;20141;-73
2022/07/13 04:31:16;;;;;;;6.50;3.67;;;;;;;23.30;48.64;101843.50;5081638;28;20059;-72
2022/07/13 04:33:42;;;;;;;5.53;3.90;;;;;;;23.27;48.37;101837.31;5087540;28;20025;-72
2022/07/13 04:36:07;;;;;;;5.38;3.40;;;;;;;23.30;48.67;101837.81;5087911;28;20376;-72
2022/07/13 04:38:34;;;;;;;8.45;3.83;;;;;;;23.31;48.84;101842.34;5093786;28;20039;-72
2022/07/13 04:40:59;;;;;;;6.97;3.97;;;;;;;23.28;48.60;101839.00;5085178;28;20024;-72
2022/07/13 04:43:24;;;;;;;5.60;4.25;;;;;;;23.31;48.92;101840.34;5094655;28;20475;-72
2022/07/13 04:45:50;;;;;;;8.63;3.92;;;;;;;23.31;48.42;101846.03;5094190;28;20040;-73
2022/07/13 04:48:15;;;;;;;5.30;3.65;;;;;;;23.32;48.67;101847.69;5110840;28;20038;-72
2022/07/13 04:50:40;;;;;;;7.10;4.13;;;;;;;23.31;48.99;101843.19;5092614;28;20107;-72
2022/07/13 04:53:05;;;;;;;7.60;3.58;;;;;;;23.31;48.98;101845.19;5085991;28;20039;-73
2022/07/13 04:55:31;;;;;;;6.72;3.72;;;;;;;23.32;49.23;101842.03;5093966;28;20032;-73
2022/07/13 04:57:57;;;;;;;8.27;3.75;;;;;;;23.32;49.09;101841.19;5106812;28;20031;-73
2022/07/13 05:00:23;;;;;;;8.75;3.65;;;;;;;23.32;49.19;101838.38;5093062;28;20420;-72
2022/07/13 05:02:49;;;;;;;5.32;3.50;;;;;;;23.34;48.93;101838.88;5091872;28;20111;-72
2022/07/13 05:05:14;;;;;;;8.02;3.83;;;;;;;23.32;48.85;101844.84;5090401;28;20293;-72
2022/07/13 05:07:39;;;;;;;9.57;3.95;;;;;;;23.30;49.11;101832.16;5103321;28;20027;-72
2022/07/13 05:10:06;;;;;;;5.72;3.83;;;;;;;23.28;48.97;101841.81;5093449;28;20035;-72
2022/07/13 05:12:32;;;;;;;7.63;3.85;;;;;;;23.32;48.76;101835.53;5095512;28;20115;-73
2022/07/13 05:14:58;;;;;;;7.50;3.55;;;;;;;23.25;48.76;101838.78;5083919;28;20111;-72
2022/07/13 05:17:23;;;;;;;6.93;3.50;;;;;;;23.27;48.65;101839.31;5072628;28;20120;-72
2022/07/13 05:19:48;;;;;;;4.35;3.28;;;;;;;23.26;49.18;101844.16;5086254;28;20494;-72
2022/07/13 05:22:15;;;;;;;5.00;3.33;;;;;;;23.31;48.91;101834.69;5094032;28;20036;-72
2022/07/13 05:24:43;;;;;;;4.80;3.28;;;;;;;23.30;48.74;101826.50;5091116;28;20024;-72
2022/07/13 05:27:09;;;;;;;6.60;3.40;;;;;;;23.32;48.63;101833.53;5094998;28;20498;-73
2022/07/13 05:29:34;;;;;;;4.80;3.30;;;;;;;23.30;48.83;101830.16;5091848;28;20024;-73
2022/07/13 05:32:00;;;;;;;6.57;3.40;;;;;;;23.33;48.58;101832.38;5089422;28;20056;-73
2022/07/13 05:34:25;;;;;;;7.80;3.67;;;;;;;23.35;48.83;101840.56;5093678;28;20028;-73
2022/07/13 05:36:55;;;;;;;7.20;3.25;;;;;;;23.32;49.07;101835.53;5092623;28;20020;-73
2022/07/13 05:39:20;;;;;;;6.00;3.42;;;;;;;23.34;48.67;101847.38;5090430;28;20036;-72
2022/07/13 05:41:46;;;;;;;4.72;3.47;;;;;;;23.31;48.39;101846.03;5099898;28;20032;-72
2022/07/13 05:44:11;;;;;;;3.67;2.88;;;;;;;23.33;48.59;101849.38;5092325;28;20438;-72
2022/07/13 05:46:36;;;;;;;6.80;3.60;;;;;;;23.34;48.67;101848.19;5089118;28;20066;-72
2022/07/13 05:49:01;;;;;;;5.47;3.55;;;;;;;23.36;48.61;101845.06;5086831;28;20028;-72
2022/07/13 05:51:27;;;;;;;6.68;3.15;;;;;;;23.35;48.44;101851.91;5088965;28;20028;-72
2022/07/13 05:53:53;;;;;;;5.50;3.30;;;;;;;23.31;48.46;101857.34;5089752;28;20085;-70
2022/07/13 05:56:18;;;;;;;5.93;3.25;;;;;;;23.37;48.39;101855.25;5092289;28;20352;-69
2022/07/13 05:58:44;;;;;;;6.65;3.90;;;;;;;23.36;48.54;101865.75;5085977;28;20035;-68
2022/07/13 06:01:09;;;;;;;6.30;3.05;;;;;;;23.41;48.49;101859.94;5083237;28;20798;-71
2022/07/13 06:03:34;;;;;;;4.47;3.05;;;;;;;23.43;48.75;101859.66;5086780;28;20032;-72
2022/07/13 06:05:59;;;;;;;4.72;3.17;;;;;;;23.44;48.71;101862.16;5089912;28;20043;-72
2022/07/13 06:08:25;;;;;;;6.53;3.25;;;;;;;23.46;48.95;101865.53;5089004;28;20040;-71
2022/07/13 06:10:52;;;;;;;6.75;3.22;;;;;;;23.45;48.99;101865.84;5086791;28;20113;-71
2022/07/13 06:13:17;;;;;;;5.05;3.35;;;;;;;23.46;48.90;101867.50;5093202;28;20031;-71
2022/07/13 06:15:43;;;;;;;5.15;3.38;;;;;;;23.48;48.72;101865.22;5088953;28;20432;-72
2022/07/13 06:18:08;;;;;;;5.10;3.38;;;;;;;23.47;48.83;101860.69;5086506;28;20028;-71
2022/07/13 06:20:33;;;;;;;6.55;3.17;;;;;;;23.48;49.12;101866.03;5086396;28;20036;-71
2022/07/13 06:23:10;;;;;;;4.80;3.10;;;;;;;23.48;48.83;101863.22;5086319;28;20032;-70
2022/07/13 06:25:37;;;;;;;6.43;3.25;;;;;;;23.51;49.15;101865.41;5080011;28;20028;-72
2022/07/13 06:28:03;;;;;;;5.60;3.10;;;;;;;23.54;49.81;101861.13;5081235;28;20573;-71
2022/07/13 06:30:28;;;;;;;5.63;3.10;;;;;;;23.53;49.58;101853.75;5083209;28;20060;-70
2022/07/13 06:32:53;;;;;;;6.50;3.40;;;;;;;23.51;49.28;101861.75;5081424;28;20472;-72
2022/07/13 06:35:19;;;;;;;6.72;3.85;;;;;;;23.53;49.85;101863.09;5083023;28;20059;-71
2022/07/13 06:37:44;;;;;;;3.47;3.10;;;;;;;23.56;49.63;101864.47;5080815;28;20035;-69
2022/07/13 06:40:10;;;;;;;5.78;3.03;;;;;;;23.58;50.09;101853.66;5086234;28;20016;-69
2022/07/13 06:42:35;;;;;;;5.07;3.60;;;;;;;23.59;49.81;101855.34;5092574;28;20038;-70
2022/07/13 06:45:00;;;;;;;7.22;3.33;;;;;;;23.60;50.55;101862.66;5084992;28;20066;-69
2022/07/13 06:47:26;;;;;;;5.22;3.17;;;;;;;23.61;49.89;101855.84;5090180;28;20154;-69
2022/07/13 06:49:51;;;;;;;3.70;3.08;;;;;;;23.62;50.23;101856.66;5081829;28;20054;-69
2022/07/13 06:52:16;;;;;;;3.70;3.03;;;;;;;23.61;49.63;101850.16;5084826;28;20069;-68
2022/07/13 06:54:41;;;;;;;6.43;3.72;;;;;;;23.61;49.88;101850.16;5085442;28;20609;-71
2022/07/13 06:57:07;;;;;;;4.57;3.25;;;;;;;23.78;49.29;101855.22;5082655;28;20036;-70
2022/07/13 06:59:32;;;;;;;5.25;3.55;;;;;;;23.85;49.08;101849.09;5078163;28;20067;-70
2022/07/13 07:01:57;;;;;;;8.85;3.60;;;;;;;23.90;49.05;101847.00;5086302;28;20088;-67
2022/07/13 07:04:23;;;;;;;7.88;3.60;;;;;;;23.89;49.57;101850.13;5087265;28;20448;-70
2022/07/13 07:06:48;;;;;;;8.18;3.70;;;;;;;23.87;49.68;101860.97;5081529;28;20027;-75
2022/07/13 07:09:13;;;;;;;4.65;3.20;;;;;;;23.85;50.42;101855.59;5089698;28;20036;-74
2022/07/13 07:11:39;;;;;;;4.72;3.05;;;;;;;23.85;50.53;101864.13;5088941;28;20067;-68
2022/07/13 07:14:04;;;;;;;6.53;3.97;;;;;;;23.83;50.37;101859.94;5088883;28;20035;-70
2022/07/13 07:16:29;;;;;;;8.35;3.38;;;;;;;23.84;50.62;101867.28;5086154;28;20162;-69
2022/07/13 07:18:55;;;;;;;7.88;4.70;;;;;;;23.82;50.71;101856.28;5079642;28;20032;-70
2022/07/13 07:21:20;;;;;;;5.80;3.78;;;;;;;23.81;50.73;101865.91;5084640;28;20016;-67
2022/07/13 07:23:47;;;;;;;10.27;4.57;;;;;;;23.85;51.11;101860.44;5092587;28;20032;-69
2022/07/13 07:26:12;;;;;;;8.70;4.20;;;;;;;24.04;51.46;101851.78;5094852;28;20043;-69
2022/07/13 07:28:38;;;;;;;10.65;4.40;;;;;;;24.08;51.58;101853.66;5092179;28;20044;-69
2022/07/13 07:31:03;;;;;;;9.32;4.93;;;;;;;24.10;50.80;101853.34;5090857;28;20032;-63
2022/07/13 07:33:29;;;;;;;8.82;5.25;;;;;;;24.09;50.61;101849.69;5101160;28;20024;-63
2022/07/13 07:35:54;;;;;;;9.50;5.45;;;;;;;24.15;50.88;101848.38;5106149;28;20051;-63
2022/07/13 07:38:19;;;;;;;8.77;5.10;;;;;;;24.19;51.06;101852.25;5091897;28;20034;-64
2022/07/13 07:40:44;;;;;;;10.18;5.07;;;;;;;24.20;51.12;101856.75;5095052;28;20028;-70
2022/07/13 07:43:10;;;;;;;8.70;5.30;;;;;;;24.20;50.60;101848.25;5102085;28;20066;-70
2022/07/13 07:45:35;;;;;;;10.18;4.82;;;;;;;24.18;50.99;101847.75;5089001;28;20081;-67
2022/07/13 07:48:00;;;;;;;9.98;5.10;;;;;;;24.17;51.42;101848.91;5090923;28;20081;-68
2022/07/13 07:50:26;;;;;;;5.60;4.35;;;;;;;24.17;51.68;101848.91;5090544;28;20059;-67
2022/07/13 07:52:51;;;;;;;9.82;5.03;;;;;;;24.18;51.51;101855.41;5090363;28;20036;-67
2022/07/13 07:55:17;;;;;;;9.23;5.05;;;;;;;24.20;51.91;101853.09;5099471;28;20024;-63
2022/07/13 07:57:46;;;;;;;7.75;5.07;;;;;;;24.25;52.14;101845.31;5091995;28;20104;-66
2022/07/13 08:00:12;;;;;;;5.70;4.28;;;;;;;24.30;52.76;101841.50;5089868;28;20533;-66
2022/07/13 08:02:38;;;;;;;9.57;5.35;;;;;;;24.35;52.07;101840.53;5080332;28;20035;-71
2022/07/13 08:05:05;;;;;;;10.82;5.18;;;;;;;24.38;52.05;101839.88;5090588;28;20020;-68
2022/07/13 08:07:30;;;;;;;7.78;5.10;;;;;;;24.43;51.98;101842.59;5087500;28;20081;-68
2022/07/13 08:09:55;;;;;;;6.78;5.00;;;;;;;24.51;52.76;101841.00;5097595;28;20059;-68
2022/07/13 08:12:21;;;;;;;11.80;4.97;;;;;;;24.57;52.62;101846.22;5084967;28;20472;-68
2022/07/13 08:14:47;;;;;;;7.57;5.40;;;;;;;24.59;52.65;101855.22;5094547;28;20750;-67
2022/07/13 08:17:12;;;;;;;8.55;4.72;;;;;;;24.58;52.45;101847.06;5093439;28;20444;-65
2022/07/13 08:19:37;;;;;;;8.55;5.60;;;;;;;24.56;52.79;101857.88;5095509;28;20027;-66
2022/07/13 08:22:03;;;;;;;8.50;6.18;;;;;;;24.61;53.16;101858.59;5090437;28;20043;-65
2022/07/13 08:24:28;;;;;;;11.00;5.47;;;;;;;24.67;53.63;101854.44;5108072;28;20754;-65
2022/07/13 08:26:54;;;;;;;9.63;5.40;;;;;;;24.71;54.34;101861.16;5091130;28;20471;-66
2022/07/13 08:29:19;;;;;;;7.00;5.78;;;;;;;24.78;54.09;101860.69;5082678;28;20037;-65
2022/07/13 08:31:44;;;;;;;8.88;5.50;;;;;;;24.80;53.75;101866.03;5096181;28;20056;-66
2022/07/13 08:39:38;;;;;;;8.57;5.25;;;;;;;24.93;53.75;101862.28;5094407;28;20038;-65
2022/07/13 08:42:04;;;;;;;8.07;4.90;;;;;;;24.98;53.26;101860.13;5094565;28;20016;-66
2022/07/13 08:44:31;;;;;;;10.30;4.53;;;;;;;25.04;53.29;101868.53;5091169;28;20035;-67
2022/07/13 08:46:58;;;;;;;9.30;4.25;;;;;;;25.06;52.51;101860.50;5080622;28;20024;-67
2022/07/13 08:49:24;;;;;;;8.85;4.28;;;;;;;25.16;52.71;101860.25;5076898;28;20036;-67
2022/07/13 08:51:51;;;;;;;5.90;3.97;;;;;;;25.16;52.74;101865.94;5088075;28;20490;-67
2022/07/13 08:54:16;;;;;;;8.95;4.65;;;;;;;25.20;52.61;101864.13;5091504;28;20395;-67
2022/07/13 08:56:42;;;;;;;6.78;4.78;;;;;;;25.19;52.33;101860.44;5079779;28;20020;-67
2022/07/13 08:59:07;;;;;;;10.60;4.32;;;;;;;25.22;51.93;101868.28;5100242;28;20127;-67
2022/07/13 09:01:33;;;;;;;9.75;3.72;;;;;;;25.26;51.41;101865.63;5093619;28;20110;-67
2022/07/13 09:03:59;;;;;;;6.22;3.95;;;;;;;25.34;51.16;101866.84;5094302;28;20097;-67
2022/07/13 09:06:39;;;;;;;6.57;3.80;;;;;;;25.32;51.11;101864.31;5092415;28;20024;-67
2022/07/13 09:09:23;;;;;;;8.60;4.20;;;;;;;25.31;50.82;101868.34;5089994;28;20145;-67
2022/07/13 09:11:48;;;;;;;5.57;3.88;;;;;;;25.30;51.06;101871.50;5089033;28;20036;-67
2022/07/13 09:14:23;;;;;;;8.52;3.33;;;;;;;25.32;51.18;101884.22;5093131;28;20062;-67
2022/07/13 09:16:51;;;;;;;4.97;3.72;;;;;;;25.40;51.09;101874.06;5092782;28;20038;-67
2022/07/13 09:19:16;;;;;;;6.35;3.55;;;;;;;25.49;51.77;101872.06;5091403;28;20020;-67
2022/07/13 09:21:42;;;;;;;9.43;4.03;;;;;;;25.55;51.11;101872.78;5092215;28;20031;-67
2022/07/13 09:24:07;;;;;;;6.63;3.95;;;;;;;25.54;51.17;101880.44;5090572;28;20028;-66
2022/07/13 09:26:44;;;;;;;7.07;3.95;;;;;;;25.57;50.61;101882.63;5089659;28;20051;-67
2022/07/13 09:29:11;;;;;;;5.75;3.90;;;;;;;25.55;50.59;101873.59;5090972;28;20036;-66
2022/07/13 09:31:50;;;;;;;7.50;4.03;;;;;;;25.57;51.02;101876.94;5086553;28;20166;-67
2022/07/13 09:34:16;;;;;;;10.93;3.78;;;;;;;25.58;51.91;101880.63;5084208;28;20124;-68
2022/07/13 09:36:42;;;;;;;9.30;3.58;;;;;;;25.56;51.59;101880.13;5093755;28;20043;-66
2022/07/13 09:39:10;;;;;;;10.25;4.00;;;;;;;25.51;51.63;101883.97;5092663;28;20070;-66
2022/07/13 09:41:36;;;;;;;6.55;4.13;;;;;;;25.48;51.15;101883.78;5087584;28;20021;-67
2022/07/13 09:46:57;;;;;;;8.00;3.45;;;;;;;25.49;52.42;101868.38;5081000;28;20490;-67
2022/07/13 09:49:35;;;;;;;6.15;3.53;;;;;;;25.50;52.17;101868.03;5087023;28;20479;-67
2022/07/13 09:52:03;;;;;;;5.28;3.08;;;;;;;25.51;51.39;101871.75;5090165;28;20036;-66
2022/07/13 09:54:30;;;;;;;4.93;3.10;;;;;;;25.54;50.75;101876.75;5093630;28;20426;-66
2022/07/13 09:56:58;;;;;;;5.28;2.83;;;;;;;25.50;49.81;101887.94;5091194;28;20024;-66
2022/07/13 09:59:24;;;;;;;7.65;2.83;;;;;;;25.49;46.36;101882.59;5091060;28;20032;-67
2022/07/13 10:01:50;;;;;;;6.82;2.60;;;;;;;25.49;46.92;101889.13;5098968;28;20043;-66
2022/07/13 10:04:17;;;;;;;3.63;2.50;;;;;;;25.52;47.48;101891.31;5091964;28;20429;-66
2022/07/13 10:06:42;;;;;;;4.85;3.00;;;;;;;25.51;48.55;101883.97;5092172;28;20395;-66
2022/07/13 10:09:08;;;;;;;5.97;3.30;;;;;;;25.52;48.83;101885.63;5090767;28;20030;-67
2022/07/13 10:11:34;;;;;;;4.88;3.08;;;;;;;25.56;49.46;101891.50;5098668;28;20049;-67
2022/07/13 10:13:59;;;;;;;4.32;3.13;;;;;;;25.62;49.39;101891.03;5084365;28;20060;-67
2022/07/13 10:16:29;;;;;;;6.25;2.97;;;;;;;25.60;49.44;101893.34;5088746;28;20450;-67
2022/07/13 10:18:56;;;;;;;8.98;3.20;;;;;;;25.61;48.95;101897.00;5082583;28;20490;-67
2022/07/13 10:21:47;;;;;;;6.00;3.30;;;;;;;25.60;49.09;101893.34;5093797;28;20060;-67
2022/07/13 10:24:17;;;;;;;6.22;3.13;;;;;;;25.61;48.83;101895.00;5085240;28;20043;-67
2022/07/13 10:26:43;;;;;;;4.72;3.17;;;;;;;25.62;48.76;101888.19;5081166;28;20032;-66
2022/07/13 10:29:10;;;;;;;4.55;2.60;;;;;;;25.65;48.31;101896.03;5086514;28;20020;-67
2022/07/13 10:31:37;;;;;;;4.20;2.67;;;;;;;25.63;48.02;101895.53;5084071;28;20376;-67
2022/07/13 10:34:04;;;;;;;5.10;2.80;;;;;;;25.60;47.61;101898.19;5097287;28;20098;-68
2022/07/13 10:36:48;;;;;;;7.40;2.75;;;;;;;25.60;47.62;101899.03;5093772;28;20032;-69
2022/07/13 10:39:14;;;;;;;6.38;2.67;;;;;;;25.57;46.68;101902.53;5092985;28;20047;-68
2022/07/13 10:41:57;;;;;;;4.80;2.72;;;;;;;25.57;47.67;101899.69;5090225;28;20032;-68
2022/07/13 10:44:42;;;;;;;3.45;2.55;;;;;;;25.61;47.91;101900.69;5093021;28;20040;-68
2022/07/13 10:47:09;;;;;;;5.07;2.88;;;;;;;25.70;48.31;101901.56;5093317;28;20016;-68
2022/07/13 10:49:38;;;;;;;9.18;2.95;;;;;;;25.78;47.22;101904.78;5097252;28;20390;-68
2022/07/13 10:52:21;;;;;;;6.53;2.55;;;;;;;25.90;47.75;101919.22;5097414;28;20028;-68
2022/07/13 10:55:06;;;;;;;4.65;2.42;;;;;;;26.01;47.38;101908.34;5078560;28;20042;-69
2022/07/13 10:57:32;;;;;;;4.78;2.70;;;;;;;26.06;47.04;101909.03;5094182;28;20048;-69
2022/07/13 11:00:19;;;;;;;3.65;2.40;;;;;;;26.04;46.75;101913.38;5095913;28;20077;-68
2022/07/13 11:02:51;;;;;;;6.07;2.70;;;;;;;26.01;46.83;101914.84;5089570;28;20062;-68
2022/07/13 11:05:19;;;;;;;4.63;2.53;;;;;;;26.01;47.18;101909.16;5091948;28;20471;-68
2022/07/13 11:07:49;;;;;;;3.45;2.58;;;;;;;26.00;47.10;101918.03;5090495;28;20433;-72
2022/07/13 11:10:24;;;;;;;6.47;2.58;;;;;;;25.93;47.44;101919.38;5105884;28;20111;-71
2022/07/13 11:13:02;;;;;;;6.78;2.80;;;;;;;25.88;48.94;101921.53;5092299;28;20052;-69
2022/07/13 11:15:43;;;;;;;4.38;2.83;;;;;;;25.88;50.29;101915.84;5093263;28;20051;-70
2022/07/13 11:18:20;;;;;;;5.47;3.00;;;;;;;25.84;49.82;101914.84;5101074;28;20054;-70
2022/07/13 11:21:15;;;;;;;5.60;2.70;;;;;;;25.86;49.09;101919.03;5077741;28;20111;-69
2022/07/13 11:26:52;;;;;;;5.90;2.95;;;;;;;26.03;47.91;101915.38;5092306;28;20087;-69
2022/07/13 11:29:18;;;;;;;6.85;2.75;;;;;;;26.23;48.26;101904.53;5094507;28;20055;-66
2022/07/13 11:31:45;;;;;;;3.80;2.30;;;;;;;26.23;47.32;101908.19;5098160;28;20495;-68
2022/07/13 11:34:11;;;;;;;5.07;2.90;;;;;;;26.27;46.93;101905.53;5093584;28;20038;-68